Baker, California
Current Conditions -  °F | °C
As of 3:55 AM on Thursday 29 Jan 2015 (Local Time) from KBYS Reporting Station
Broken Clouds Broken Clouds  
Wind Chill: 52°   Ceiling: 12000
Heat Index: 52°   Visibility: 10mi
Dew Point: 42°   Wind: 8mph
Humidity: 68%   Direction: 350°N
Pressure: 30.13"   Gusts: NA
Location:  35.26°N, 116.07°W
Report Text: KBYS 291155Z AUTO 35007KT 10SM BKN120 BKN140 11/05 A3013 RMK AO2 SLP203 T01120054 10130 20110 58008 $
Loading
Personal Weather Stations






























Interactive Weather Map New forecast layout! Learn more

10-Day Weather Forecast

Advertisements
Track Severe Weather on mobile